Moose Creek, Minnesota
Current Conditions -  °F | °C
As of 8:32 AM on Sunday 23 Nov 2014 (Local Time) from KBJI Reporting Station
Haze Haze  
Wind Chill: 32°   Ceiling: 11000
Heat Index: 32°   Visibility: 1mi
Dew Point: 32°   Wind: 0mph
Humidity: 100%   Direction: NA
Pressure: 29.38"   Gusts: NA
Location:  47.4609°N, 95.2384°W
Report Text: KBJI 231432Z AUTO 00000KT 1SM BR OVC110 00/00 A2938 RMK AO2 T00000000
Loading
Personal Weather Stations






























Interactive Weather Map New forecast layout! Learn more

10-Day Weather Forecast

Advertisements
Track Severe Weather on mobile